^^
Station Historical Data
Daily Summary for June 12, 2018 Units:  English    Metric   Both
« Previous Day
Next Day »
Daily Weekly Monthly Yearly Custom
  High: Low: Average:
Temperature: TemperatureF °F 62.8 °F 67.9 °F
Dew Point: DewpointF °F 62.8 °F 65.9 °F
Humidity: Humidity% 75% 93%
Wind Speed: WindSpeedMPHmph 0.0mph 0.9mph
Wind Gust: WindSpeedGustMPHmph - -
Wind- - SE
Pressure: PressureIn in 30.38 in -
Precipitation: 0.01 in    
Historical Graphs
 
 
Tabular Data for June 12, 2018
Time Temperature Dew Point Pressure Wind Wind Speed Wind Gust Humidity Rainfall Rate (Hourly)
TemperatureF °F DewpointF °F PressureIn in Calm     Humidity% HourlyPrecipIn in
00:03 63.5 °F 63.1 °F 30.38 in Calm     99% 0.00 in
00:18 63.7 °F 63.3 °F 30.38 in ESE 0.9 mph 1.0 mph 99% 0.00 in
00:23 63.7 °F 63.3 °F 30.38 in Calm   1.0 mph 99% 0.00 in
00:28 63.5 °F 63.1 °F 30.38 in ESE 0.9 mph 1.0 mph 99% 0.00 in
00:48 63.7 °F 63.3 °F 30.39 in Calm     99% 0.00 in
00:58 63.7 °F 63.3 °F 30.39 in ESE 0.9 mph 1.0 mph 99% 0.00 in
01:03 63.7 °F 63.3 °F 30.40 in Calm   1.0 mph 99% 0.00 in
01:08 63.7 °F 63.3 °F 30.40 in Calm   1.0 mph 99% 0.00 in
01:13 63.7 °F 63.3 °F 30.40 in Calm     99% 0.00 in
01:18 63.7 °F 63.3 °F 30.41 in Calm     99% 0.00 in
01:38 63.5 °F 63.1 °F 30.41 in Calm     99% 0.00 in
01:43 63.5 °F 63.1 °F 30.41 in Calm     99% 0.00 in
01:48 63.5 °F 63.1 °F 30.42 in Calm     99% 0.00 in
01:53 63.5 °F 63.1 °F 30.42 in Calm     99% 0.00 in
01:58 63.5 °F 63.1 °F 30.42 in Calm     99% 0.00 in
02:03 63.5 °F 63.5 °F 30.42 in Calm     100% 0.00 in
02:13 63.5 °F 63.1 °F 30.42 in Calm     99% 0.00 in
02:19 63.7 °F 63.3 °F 30.42 in Calm     99% 0.00 in
02:24 63.7 °F 63.3 °F 30.42 in Calm     99% 0.00 in
02:29 63.7 °F 63.3 °F 30.42 in Calm     99% 0.00 in
02:34 63.7 °F 63.3 °F 30.42 in Calm   1.0 mph 99% 0.00 in
02:39 63.7 °F 63.3 °F 30.42 in Calm     99% 0.00 in
02:44 63.7 °F 63.3 °F 30.42 in WNW 0.9 mph 1.0 mph 99% 0.00 in
02:54 63.7 °F 63.3 °F 30.42 in Calm     99% 0.00 in
02:59 63.7 °F 63.3 °F 30.42 in Calm     99% 0.00 in
03:09 63.7 °F 63.3 °F 30.42 in Calm     99% 0.00 in
03:14 63.7 °F 63.3 °F 30.42 in Calm     99% 0.00 in
03:19 63.5 °F 63.1 °F 30.42 in Calm     99% 0.00 in
03:24 63.5 °F 63.5 °F 30.42 in Calm     100% 0.00 in
03:34 63.5 °F 63.5 °F 30.42 in Calm     100% 0.00 in
03:39 63.5 °F 63.1 °F 30.42 in Calm     99% 0.00 in
03:44 63.3 °F 63.3 °F 30.42 in Calm   1.0 mph 100% 0.00 in
03:49 63.5 °F 63.5 °F 30.42 in ESE 0.9 mph 1.0 mph 100% 0.00 in
03:54 63.5 °F 63.5 °F 30.42 in Calm     100% 0.00 in
03:59 63.3 °F 63.3 °F 30.42 in Calm     100% 0.00 in
04:04 63.3 °F 63.3 °F 30.42 in Calm     100% 0.00 in
04:14 63.1 °F 63.1 °F 30.42 in Calm     100% 0.00 in
04:24 63.1 °F 63.1 °F 30.41 in Calm     100% 0.00 in
04:34 63.0 °F 63.0 °F 30.41 in Calm     100% 0.00 in
04:39 63.0 °F 63.0 °F 30.41 in Calm     100% 0.00 in
04:44 62.8 °F 62.8 °F 30.41 in Calm     100% 0.00 in
04:49 63.0 °F 63.0 °F 30.41 in Calm     100% 0.00 in
04:54 63.0 °F 63.0 °F 30.41 in Calm     100% 0.00 in
04:59 63.0 °F 63.0 °F 30.42 in Calm     100% 0.00 in
05:09 63.0 °F 63.0 °F 30.41 in Calm   1.0 mph 100% 0.00 in
05:19 63.0 °F 63.0 °F 30.41 in Calm     100% 0.00 in
05:24 63.0 °F 63.0 °F 30.41 in Calm     100% 0.00 in
05:29 63.0 °F 63.0 °F 30.42 in Calm     100% 0.00 in
05:34 63.0 °F 63.0 °F 30.42 in Calm     100% 0.00 in
05:39 63.1 °F 63.1 °F 30.42 in Calm     100% 0.00 in
05:44 63.1 °F 63.1 °F 30.42 in Calm     100% 0.00 in
05:49 63.1 °F 63.1 °F 30.42 in Calm     100% 0.00 in
05:54 63.0 °F 63.0 °F 30.42 in Calm     100% 0.01 in
05:59 63.0 °F 63.0 °F 30.42 in Calm   1.0 mph 100% 0.01 in
06:04 63.0 °F 63.0 °F 30.42 in Calm     100% 0.01 in
06:24 62.8 °F 62.8 °F 30.42 in Calm   1.0 mph 100% 0.01 in
06:29 62.8 °F 62.8 °F 30.43 in Calm     100% 0.01 in
06:34 62.8 °F 62.8 °F 30.43 in Calm   1.0 mph 100% 0.01 in
06:39 62.8 °F 62.8 °F 30.42 in Calm     100% 0.01 in
06:44 62.8 °F 62.8 °F 30.43 in Calm   1.0 mph 100% 0.01 in
06:59 62.8 °F 62.8 °F 30.43 in Calm   1.0 mph 100% 0.00 in
07:09 63.0 °F 63.0 °F 30.44 in Calm     100% 0.00 in
07:14 63.1 °F 63.1 °F 30.44 in Calm     100% 0.00 in
07:19 63.1 °F 63.1 °F 30.44 in Calm   1.0 mph 100% 0.00 in
07:24 63.3 °F 63.3 °F 30.44 in Calm     100% 0.00 in
07:29 63.7 °F 63.7 °F 30.44 in Calm     100% 0.00 in
07:34 63.7 °F 63.7 °F 30.44 in Calm   1.0 mph 100% 0.00 in
07:39 63.9 °F 63.9 °F 30.45 in Calm   1.0 mph 100% 0.00 in
07:44 63.9 °F 63.9 °F 30.45 in Calm     100% 0.00 in
07:49 64.0 °F 64.0 °F 30.45 in Calm     100% 0.00 in
07:54 64.0 °F 64.0 °F 30.45 in Calm     100% 0.00 in
07:59 64.2 °F 64.2 °F 30.45 in Calm     100% 0.00 in
08:05 64.2 °F 64.2 °F 30.45 in Calm     100% 0.00 in
08:10 64.2 °F 64.2 °F 30.45 in Calm   1.0 mph 100% 0.00 in
08:20 64.2 °F 64.2 °F 30.46 in Calm   1.0 mph 100% 0.00 in
08:25 64.2 °F 64.2 °F 30.46 in Calm   1.0 mph 100% 0.00 in
08:30 64.2 °F 64.2 °F 30.46 in Calm   1.0 mph 100% 0.00 in
08:35 64.6 °F 64.6 °F 30.46 in East 0.9 mph 2.0 mph 100% 0.00 in
08:45 64.8 °F 64.8 °F 30.47 in Calm   1.0 mph 100% 0.00 in
08:55 64.8 °F 64.8 °F 30.47 in ENE 0.9 mph 4.0 mph 100% 0.00 in
09:00 64.9 °F 64.9 °F 30.47 in Calm   2.0 mph 100% 0.00 in
09:05 64.9 °F 64.9 °F 30.47 in ESE 2.9 mph 3.0 mph 100% 0.00 in
09:15 65.7 °F 65.7 °F 30.47 in Calm   1.0 mph 100% 0.00 in
09:20 65.8 °F 65.8 °F 30.47 in Calm   1.0 mph 100% 0.00 in
09:30 67.6 °F 67.6 °F 30.47 in WNW 0.9 mph 2.0 mph 100% 0.00 in
09:35 68.5 °F 68.2 °F 30.48 in ENE 0.9 mph 2.0 mph 99% 0.00 in
09:45 70.0 °F 69.6 °F 30.48 in Calm   1.0 mph 99% 0.00 in
09:55 69.8 °F 69.3 °F 30.47 in West 0.9 mph 2.0 mph 98% 0.00 in
10:01 71.1 °F 70.7 °F 30.47 in Calm   1.0 mph 99% 0.00 in
10:06 71.6 °F 71.2 °F 30.47 in WSW 2.0 mph 2.0 mph 99% 0.00 in
10:11 71.8 °F 71.2 °F 30.47 in SE 0.9 mph 3.0 mph 98% 0.00 in
10:16 72.0 °F 71.4 °F 30.47 in Calm   1.0 mph 98% 0.00 in
10:26 72.3 °F 71.4 °F 30.46 in ENE 0.9 mph 6.0 mph 97% 0.00 in
10:31 71.8 °F 70.9 °F 30.46 in ENE 2.0 mph 5.0 mph 97% 0.00 in
10:36 71.8 °F 70.9 °F 30.47 in Calm   1.0 mph 97% 0.00 in
10:46 72.1 °F 71.2 °F 30.46 in ENE 0.9 mph 3.0 mph 97% 0.00 in
11:01 71.6 °F 70.3 °F 30.46 in Calm   2.0 mph 96% 0.00 in
11:06 72.0 °F 70.7 °F 30.46 in NE 0.9 mph 2.0 mph 96% 0.00 in
11:11 72.1 °F 70.9 °F 30.46 in South 2.0 mph 3.0 mph 96% 0.00 in
11:16 72.5 °F 71.2 °F 30.46 in Calm   5.0 mph 96% 0.00 in
11:21 72.3 °F 70.9 °F 30.46 in SW 0.9 mph 4.0 mph 95% 0.00 in
11:37 72.1 °F 70.9 °F 30.46 in ENE 2.0 mph 3.0 mph 96% 0.00 in
11:57 72.9 °F 71.4 °F 30.47 in NE 8.9 mph 10.0 mph 95% 0.00 in
12:02 72.9 °F 70.7 °F 30.47 in NE 0.9 mph 4.0 mph 93% 0.00 in
12:17 73.8 °F 70.3 °F 30.47 in SSE 4.0 mph 5.0 mph 89% 0.00 in
12:22 73.8 °F 70.0 °F 30.47 in ENE 2.9 mph 3.0 mph 88% 0.00 in
12:27 73.2 °F 69.1 °F 30.46 in West 4.0 mph 8.0 mph 87% 0.00 in
12:32 73.0 °F 69.3 °F 30.46 in Calm   6.0 mph 88% 0.00 in
12:37 72.9 °F 69.8 °F 30.47 in North 2.9 mph 3.0 mph 90% 0.00 in
12:42 73.0 °F 69.3 °F 30.46 in ESE 0.9 mph 9.0 mph 88% 0.00 in
12:47 73.2 °F 68.7 °F 30.46 in WSW 0.9 mph 7.0 mph 86% 0.00 in
12:52 73.9 °F 69.8 °F 30.46 in ENE 2.0 mph 3.0 mph 87% 0.00 in
12:57 74.7 °F 70.2 °F 30.45 in ENE 2.0 mph 6.0 mph 86% 0.00 in
13:02 75.0 °F 69.8 °F 30.45 in ENE 2.0 mph 5.0 mph 84% 0.00 in
13:07 75.2 °F 69.3 °F 30.45 in NE 4.9 mph 9.0 mph 82% 0.00 in
13:12 74.8 °F 70.0 °F 30.45 in SW 2.9 mph 7.0 mph 85% 0.00 in
13:22 74.8 °F 70.0 °F 30.45 in ENE 0.9 mph 7.0 mph 85% 0.00 in
13:27 74.8 °F 68.9 °F 30.45 in East 6.0 mph 15.0 mph 82% 0.00 in
13:42 74.8 °F 69.3 °F 30.45 in ENE 0.9 mph 8.0 mph 83% 0.00 in
13:52 75.4 °F 70.9 °F 30.45 in SE 0.9 mph 5.0 mph 86% 0.00 in
13:57 75.7 °F 70.5 °F 30.45 in NE 2.9 mph 7.0 mph 84% 0.00 in
14:08 75.9 °F 69.6 °F 30.45 in ENE 4.0 mph 10.0 mph 81% 0.00 in
14:38 75.0 °F 68.7 °F 30.44 in SSE 0.9 mph 10.0 mph 81% 0.00 in
14:43 75.0 °F 68.7 °F 30.43 in NE 6.9 mph 13.0 mph 81% 0.00 in
14:48 75.0 °F 68.7 °F 30.43 in East 0.9 mph 10.0 mph 81% 0.00 in
14:53 75.4 °F 70.5 °F 30.43 in SE 0.9 mph 3.0 mph 85% 0.00 in
14:58 75.9 °F 70.3 °F 30.42 in ESE 4.0 mph 4.0 mph 83% 0.00 in
15:03 76.5 °F 70.2 °F 30.43 in NE 2.9 mph 6.0 mph 81% 0.00 in
15:08 76.5 °F 70.5 °F 30.43 in NNE 2.9 mph 5.0 mph 82% 0.00 in
15:18 76.6 °F 69.3 °F 30.43 in NE 4.9 mph 10.0 mph 78% 0.00 in
15:23 77.0 °F 68.5 °F 30.42 in NE 6.0 mph 12.0 mph 75% 0.00 in
15:28 76.8 °F 69.4 °F 30.42 in ENE 2.0 mph 6.0 mph 78% 0.00 in
15:33 76.8 °F 68.4 °F 30.42 in ENE 6.0 mph 9.0 mph 75% 0.00 in
15:43 76.1 °F 69.4 °F 30.42 in East 2.0 mph 4.0 mph 80% 0.00 in
16:14 74.3 °F 67.3 °F 30.42 in NE 4.9 mph 14.0 mph 79% 0.00 in
16:19 73.9 °F 68.2 °F 30.42 in NE 0.9 mph 4.0 mph 82% 0.00 in
16:24 73.9 °F 68.4 °F 30.42 in NE 2.0 mph 4.0 mph 83% 0.00 in
16:29 73.9 °F 68.4 °F 30.41 in West 2.0 mph 4.0 mph 83% 0.00 in
16:34 74.8 °F 68.2 °F 30.41 in SW 2.9 mph 8.0 mph 80% 0.00 in
16:39 75.6 °F 68.5 °F 30.40 in NE 6.0 mph 7.0 mph 79% 0.00 in
16:54 74.3 °F 67.3 °F 30.40 in ESE 2.9 mph 8.0 mph 79% 0.00 in
16:59 73.9 °F 67.1 °F 30.40 in ENE 6.9 mph 8.0 mph 79% 0.00 in
17:14 72.3 °F 67.6 °F 30.40 in WSW 2.0 mph 4.0 mph 85% 0.00 in
17:19 72.3 °F 67.8 °F 30.41 in WNW 0.9 mph 2.0 mph 86% 0.00 in
17:24 72.3 °F 67.6 °F 30.41 in WNW 2.0 mph 3.0 mph 85% 0.00 in
17:39 72.9 °F 67.8 °F 30.40 in NNW 0.9 mph 4.0 mph 84% 0.00 in
17:44 73.2 °F 68.2 °F 30.40 in NE 0.9 mph 1.0 mph 84% 0.00 in
17:55 73.4 °F 69.6 °F 30.40 in WNW 0.9 mph 1.0 mph 88% 0.00 in
18:00 73.6 °F 69.4 °F 30.39 in Calm   2.0 mph 87% 0.00 in
18:05 73.8 °F 70.0 °F 30.40 in Calm     88% 0.00 in
18:10 74.5 °F 68.2 °F 30.40 in ENE 2.9 mph 7.0 mph 81% 0.00 in
18:25 73.0 °F 68.0 °F 30.40 in West 2.0 mph 2.0 mph 84% 0.00 in
18:40 73.0 °F 68.0 °F 30.40 in ESE 2.0 mph 2.0 mph 84% 0.00 in
18:45 73.6 °F 69.1 °F 30.40 in Calm     86% 0.00 in
18:50 74.7 °F 69.1 °F 30.40 in Calm   3.0 mph 83% 0.00 in
19:00 76.6 °F 69.3 °F 30.40 in Calm   4.0 mph 78% 0.00 in
19:15 74.8 °F 67.5 °F 30.41 in ENE 0.9 mph 3.0 mph 78% 0.00 in
19:20 74.7 °F 69.4 °F 30.41 in Calm     84% 0.00 in
19:25 75.0 °F 69.4 °F 30.41 in Calm   2.0 mph 83% 0.00 in
19:30 74.5 °F 68.5 °F 30.41 in Calm   2.0 mph 82% 0.00 in
19:36 73.0 °F 68.2 °F 30.41 in Calm     85% 0.00 in
19:41 72.9 °F 68.4 °F 30.41 in West 0.9 mph 1.0 mph 86% 0.00 in
19:46 72.0 °F 67.8 °F 30.41 in West 0.9 mph 1.0 mph 87% 0.00 in
19:51 71.1 °F 67.6 °F 30.41 in Calm     89% 0.00 in
19:56 70.7 °F 67.6 °F 30.41 in Calm     90% 0.00 in
20:01 70.3 °F 67.3 °F 30.41 in Calm     90% 0.00 in
20:06 70.0 °F 67.5 °F 30.41 in Calm     92% 0.00 in
20:11 69.8 °F 67.6 °F 30.41 in Calm     93% 0.00 in
20:16 69.4 °F 67.1 °F 30.41 in Calm   1.0 mph 92% 0.00 in
20:21 69.3 °F 66.9 °F 30.41 in Calm     92% 0.00 in
20:26 69.3 °F 67.1 °F 30.41 in Calm     93% 0.00 in
20:31 69.1 °F 67.3 °F 30.41 in Calm     94% 0.00 in
20:36 68.7 °F 67.3 °F 30.41 in Calm     95% 0.00 in
20:41 68.4 °F 66.6 °F 30.42 in Calm   2.0 mph 94% 0.00 in
20:46 68.5 °F 66.4 °F 30.41 in Calm   2.0 mph 93% 0.00 in
20:51 68.5 °F 66.7 °F 30.42 in Calm     94% 0.00 in
20:56 68.4 °F 66.6 °F 30.42 in Calm     94% 0.00 in
21:06 67.8 °F 66.4 °F 30.43 in ESE 0.9 mph 1.0 mph 95% 0.00 in
21:16 67.5 °F 66.0 °F 30.44 in Calm   2.0 mph 95% 0.00 in
21:21 67.3 °F 66.0 °F 30.44 in Calm     96% 0.00 in
21:31 67.1 °F 65.8 °F 30.45 in Calm     96% 0.00 in
21:41 66.9 °F 65.7 °F 30.45 in Calm     96% 0.00 in
21:46 66.7 °F 65.5 °F 30.45 in Calm   1.0 mph 96% 0.00 in
21:51 66.9 °F 65.7 °F 30.45 in Calm   1.0 mph 96% 0.00 in
21:56 66.7 °F 65.5 °F 30.45 in Calm     96% 0.00 in
22:01 66.7 °F 65.5 °F 30.46 in WNW 2.0 mph 2.0 mph 96% 0.00 in
22:16 66.4 °F 65.1 °F 30.46 in Calm     96% 0.00 in
22:21 66.4 °F 65.1 °F 30.47 in Calm   1.0 mph 96% 0.00 in
22:26 66.2 °F 64.9 °F 30.47 in Calm     96% 0.00 in
22:31 66.0 °F 64.8 °F 30.47 in Calm     96% 0.00 in
22:41 65.7 °F 64.8 °F 30.47 in WNW 0.9 mph 1.0 mph 97% 0.00 in
22:46 65.7 °F 64.8 °F 30.47 in Calm   2.0 mph 97% 0.00 in
23:07 65.5 °F 64.6 °F 30.47 in Calm     97% 0.00 in
23:32 64.9 °F 64.0 °F 30.46 in Calm     97% 0.00 in
23:37 64.8 °F 64.2 °F 30.46 in Calm     98% 0.00 in
23:42 64.6 °F 64.0 °F 30.46 in WNW 0.9 mph 1.0 mph 98% 0.00 in
23:47 64.6 °F 64.0 °F 30.46 in Calm   1.0 mph 98% 0.00 in
23:52 64.4 °F 63.9 °F 30.46 in WNW 0.9 mph 1.0 mph 98% 0.00 in
WheeWeather.com
Compliments of Weather Underground - 2 mb